createdAt,value
2023-05-19T00:01:57.913Z,16.43
2023-05-19T00:04:28.978Z,16.42
2023-05-19T00:06:59.538Z,16.43
2023-05-19T00:09:28.390Z,16.44
2023-05-19T00:11:57.951Z,16.45
2023-05-19T00:14:26.609Z,16.44
2023-05-19T00:17:02.109Z,16.46
2023-05-19T00:19:32.507Z,16.48
2023-05-19T00:22:00.831Z,16.47
2023-05-19T00:24:29.413Z,16.46
2023-05-19T00:26:57.638Z,16.42
2023-05-19T00:29:25.825Z,16.50
2023-05-19T00:31:54.161Z,16.47
2023-05-19T00:34:22.442Z,16.45
2023-05-19T00:36:52.104Z,16.46
2023-05-19T00:39:20.380Z,16.45
2023-05-19T00:41:48.814Z,16.45
2023-05-19T00:44:17.152Z,16.41
2023-05-19T00:46:45.433Z,16.47
2023-05-19T00:49:13.569Z,16.48
2023-05-19T00:51:42.451Z,16.48
2023-05-19T00:54:12.343Z,16.50
2023-05-19T00:56:40.920Z,16.52
2023-05-19T00:59:09.541Z,16.51
2023-05-19T01:01:38.193Z,16.48
2023-05-19T01:04:10.091Z,16.47
2023-05-19T01:06:39.241Z,16.44
2023-05-19T01:09:07.753Z,16.36
2023-05-19T01:11:37.379Z,16.31
2023-05-19T01:14:06.200Z,16.18
2023-05-19T01:16:42.103Z,16.03
2023-05-19T01:19:25.744Z,15.96
2023-05-19T01:22:29.003Z,15.91
2023-05-19T01:25:33.148Z,15.88
2023-05-19T01:28:40.961Z,15.83
2023-05-19T01:31:12.137Z,15.84
2023-05-19T01:33:42.456Z,15.83
2023-05-19T01:36:13.650Z,15.81
2023-05-19T01:38:43.214Z,15.81
2023-05-19T01:41:12.759Z,15.77
2023-05-19T01:43:42.126Z,15.80
2023-05-19T01:46:12.232Z,15.81
2023-05-19T01:48:40.816Z,15.79
2023-05-19T01:51:09.324Z,15.79
2023-05-19T01:53:37.751Z,15.80
2023-05-19T01:56:07.765Z,15.82
2023-05-19T01:58:43.116Z,15.81
2023-05-19T02:01:21.330Z,15.81
2023-05-19T02:04:05.952Z,15.78
2023-05-19T02:06:43.807Z,15.76
2023-05-19T02:09:17.028Z,15.76
2023-05-19T02:11:51.661Z,15.77
2023-05-19T02:14:26.303Z,15.76
2023-05-19T02:16:58.742Z,15.73
2023-05-19T02:19:28.577Z,15.68
2023-05-19T02:21:57.637Z,15.62
2023-05-19T02:24:26.152Z,15.53
2023-05-19T02:26:55.178Z,15.52
2023-05-19T02:29:23.788Z,15.49
2023-05-19T02:31:52.035Z,15.48
2023-05-19T02:34:22.258Z,15.47
2023-05-19T02:36:50.743Z,15.41
2023-05-19T02:39:19.476Z,15.42
2023-05-19T02:41:47.706Z,15.40
2023-05-19T02:44:16.138Z,15.34
2023-05-19T02:46:44.492Z,15.30
2023-05-19T02:49:12.817Z,15.29
2023-05-19T02:51:42.410Z,15.25
2023-05-19T02:54:10.745Z,15.20
2023-05-19T02:56:39.083Z,15.16
2023-05-19T02:59:07.429Z,15.14
2023-05-19T03:01:37.888Z,15.13
2023-05-19T03:04:06.775Z,15.07
2023-05-19T03:06:35.183Z,15.01
2023-05-19T03:09:05.021Z,15.02
2023-05-19T03:11:33.336Z,14.94
2023-05-19T03:14:01.720Z,14.90
2023-05-19T03:16:29.995Z,14.85
2023-05-19T03:18:58.299Z,14.87
2023-05-19T03:21:26.586Z,14.80
2023-05-19T03:23:55.691Z,14.76
2023-05-19T03:26:25.523Z,14.75
2023-05-19T03:28:54.402Z,14.74
2023-05-19T03:31:22.687Z,14.72
2023-05-19T03:33:50.945Z,14.70
2023-05-19T03:36:19.203Z,14.72
2023-05-19T03:38:47.392Z,14.68
2023-05-19T03:41:15.918Z,14.67
2023-05-19T03:43:45.588Z,14.64
2023-05-19T03:46:13.828Z,14.69
2023-05-19T03:48:42.622Z,14.71
2023-05-19T03:51:10.953Z,14.72
2023-05-19T03:53:39.166Z,14.68
2023-05-19T03:56:08.163Z,14.70
2023-05-19T03:58:37.088Z,14.68
2023-05-19T04:01:06.781Z,14.76
2023-05-19T04:03:35.086Z,14.72
2023-05-19T04:06:03.249Z,14.72
2023-05-19T04:08:31.498Z,14.66
2023-05-19T04:10:59.966Z,14.65
2023-05-19T04:13:28.658Z,14.64
2023-05-19T04:15:57.004Z,14.62
2023-05-19T04:18:28.821Z,14.59
2023-05-19T04:20:57.450Z,14.58
2023-05-19T04:23:25.766Z,14.56
2023-05-19T04:25:54.606Z,14.56
2023-05-19T04:28:24.004Z,14.57
2023-05-19T04:30:52.392Z,14.53
2023-05-19T04:33:21.567Z,14.46
2023-05-19T04:35:51.846Z,14.39
2023-05-19T04:38:20.337Z,14.36
2023-05-19T04:40:50.456Z,14.36
2023-05-19T04:43:19.396Z,14.40
2023-05-19T04:45:50.321Z,14.37
2023-05-19T04:48:19.180Z,14.36
2023-05-19T04:50:48.936Z,14.34
2023-05-19T04:53:19.003Z,14.37
2023-05-19T04:55:47.224Z,14.36
2023-05-19T04:58:17.156Z,14.38
2023-05-19T05:00:45.573Z,14.39
2023-05-19T05:03:14.693Z,14.35
2023-05-19T05:05:43.129Z,14.36
2023-05-19T05:08:11.846Z,14.37
2023-05-19T05:10:41.475Z,14.36
2023-05-19T05:13:11.732Z,14.35
2023-05-19T05:15:40.744Z,14.33
2023-05-19T05:18:09.777Z,14.32
2023-05-19T05:20:38.918Z,14.34
2023-05-19T05:23:09.769Z,14.29
2023-05-19T05:25:39.496Z,14.29
2023-05-19T05:28:09.222Z,14.27
2023-05-19T05:30:37.717Z,14.28
2023-05-19T05:33:06.519Z,14.34
2023-05-19T05:35:35.044Z,14.31
2023-05-19T05:38:04.061Z,14.32
2023-05-19T05:40:32.337Z,14.35
2023-05-19T05:43:00.764Z,14.35
2023-05-19T05:45:30.543Z,14.35
2023-05-19T05:47:59.584Z,14.40
2023-05-19T05:50:28.678Z,14.39
2023-05-19T05:52:58.897Z,14.41
2023-05-19T05:55:27.953Z,14.45
2023-05-19T05:57:57.126Z,14.48
2023-05-19T06:00:28.145Z,14.47
2023-05-19T06:02:59.294Z,14.53
2023-05-19T06:05:27.820Z,14.52
2023-05-19T06:07:56.402Z,14.54
2023-05-19T06:10:24.927Z,14.59
2023-05-19T06:12:53.316Z,14.62
2023-05-19T06:15:23.551Z,14.71
2023-05-19T06:17:51.831Z,14.74
2023-05-19T06:20:21.713Z,14.79
2023-05-19T06:22:49.967Z,14.84
2023-05-19T06:25:18.321Z,14.88
2023-05-19T06:27:46.601Z,14.86
2023-05-19T06:30:15.454Z,14.90
2023-05-19T06:32:43.818Z,14.95
2023-05-19T06:35:12.035Z,14.98
2023-05-19T06:37:41.642Z,15.01
2023-05-19T06:40:10.929Z,15.04
2023-05-19T06:42:39.245Z,15.05
2023-05-19T06:45:09.084Z,15.03
2023-05-19T06:47:37.254Z,15.00
2023-05-19T06:50:06.207Z,15.03
2023-05-19T06:52:34.465Z,15.02
2023-05-19T06:55:04.150Z,15.05
2023-05-19T06:57:32.331Z,15.10
2023-05-19T07:00:00.558Z,15.13
2023-05-19T07:02:28.979Z,15.21
2023-05-19T07:04:57.583Z,15.26
2023-05-19T07:07:26.853Z,15.31
2023-05-19T07:09:55.151Z,15.36
2023-05-19T07:12:26.727Z,15.40
2023-05-19T07:14:54.924Z,15.46
2023-05-19T07:17:23.136Z,15.43
2023-05-19T07:19:51.407Z,15.44
2023-05-19T07:22:19.648Z,15.43
2023-05-19T07:24:48.593Z,15.46
2023-05-19T07:27:16.774Z,15.44
2023-05-19T07:29:46.464Z,15.43
2023-05-19T07:32:14.688Z,15.36
2023-05-19T07:34:42.954Z,15.37
2023-05-19T07:37:11.226Z,15.43
2023-05-19T07:39:39.543Z,15.40
2023-05-19T07:42:07.866Z,15.46
2023-05-19T07:44:35.985Z,15.49
2023-05-19T07:47:05.819Z,15.51
2023-05-19T07:49:34.095Z,15.51
2023-05-19T07:52:02.471Z,15.53
2023-05-19T07:54:30.742Z,15.59
2023-05-19T07:56:59.090Z,15.63
2023-05-19T07:59:27.408Z,15.74
2023-05-19T08:01:56.048Z,15.82
2023-05-19T08:04:25.753Z,15.87
2023-05-19T08:06:55.188Z,15.97
2023-05-19T08:09:23.321Z,16.06
2023-05-19T08:11:51.584Z,16.12
2023-05-19T08:14:22.434Z,16.20
2023-05-19T08:16:51.031Z,16.27
2023-05-19T08:19:19.523Z,16.30
2023-05-19T08:21:49.754Z,16.27
2023-05-19T08:24:17.967Z,16.24
2023-05-19T08:26:46.140Z,16.32
2023-05-19T08:29:14.435Z,16.33
2023-05-19T08:31:42.685Z,16.35
2023-05-19T08:34:10.948Z,16.30
2023-05-19T08:36:39.272Z,16.30
2023-05-19T08:39:09.159Z,16.32
2023-05-19T08:41:37.651Z,16.33
2023-05-19T08:44:06.433Z,16.34
2023-05-19T08:46:35.166Z,16.36
2023-05-19T08:49:09.778Z,16.31
2023-05-19T08:51:43.922Z,16.28
2023-05-19T08:54:18.200Z,16.21
2023-05-19T08:56:46.632Z,16.23
2023-05-19T08:59:15.995Z,16.25
2023-05-19T09:01:46.546Z,16.27
2023-05-19T09:04:15.443Z,16.28
2023-05-19T09:06:45.366Z,16.29
2023-05-19T09:09:15.689Z,16.28
2023-05-19T09:11:47.341Z,16.29
2023-05-19T09:14:15.634Z,16.36
2023-05-19T09:16:44.626Z,16.39
2023-05-19T09:19:16.725Z,16.43
2023-05-19T09:21:45.954Z,16.47
2023-05-19T09:24:15.969Z,16.41
2023-05-19T09:26:44.543Z,16.43
2023-05-19T09:29:14.044Z,16.46
2023-05-19T09:31:50.643Z,16.49
2023-05-19T09:34:19.320Z,16.54
2023-05-19T09:36:50.965Z,16.60
2023-05-19T09:39:22.118Z,16.71
2023-05-19T09:41:54.062Z,16.76
2023-05-19T09:44:29.149Z,16.86
2023-05-19T09:46:58.376Z,16.95
2023-05-19T09:49:29.686Z,17.01
2023-05-19T09:51:58.196Z,17.07
2023-05-19T09:54:29.713Z,17.16
2023-05-19T09:57:00.144Z,17.29
2023-05-19T09:59:32.955Z,17.32
2023-05-19T10:02:03.429Z,17.32
2023-05-19T10:04:32.590Z,17.42
2023-05-19T10:07:01.033Z,17.45
2023-05-19T10:09:30.955Z,17.42
2023-05-19T10:12:00.329Z,17.43
2023-05-19T10:14:30.269Z,17.47
2023-05-19T10:17:00.144Z,17.49
2023-05-19T10:19:29.934Z,17.47
2023-05-19T10:21:58.900Z,17.45
2023-05-19T10:24:27.792Z,17.47
2023-05-19T10:27:04.551Z,17.47
2023-05-19T10:29:36.014Z,17.55
2023-05-19T10:32:09.873Z,17.60
2023-05-19T10:35:01.096Z,17.60
2023-05-19T10:37:38.695Z,17.60
2023-05-19T10:40:13.762Z,17.67
2023-05-19T10:43:01.164Z,17.81
2023-05-19T10:45:36.107Z,17.85
2023-05-19T10:48:04.718Z,17.91
2023-05-19T10:50:38.381Z,17.95
2023-05-19T10:53:15.273Z,17.98
2023-05-19T10:55:48.747Z,17.91
2023-05-19T10:58:38.387Z,17.92
2023-05-19T11:01:10.548Z,17.92
2023-05-19T11:03:47.928Z,17.94
2023-05-19T11:06:25.926Z,17.93
2023-05-19T11:08:55.642Z,17.90
2023-05-19T11:11:24.021Z,17.82
2023-05-19T11:13:56.806Z,17.75
2023-05-19T11:16:29.844Z,17.69
2023-05-19T11:19:01.659Z,17.63
2023-05-19T11:21:43.928Z,17.48
2023-05-19T11:24:12.203Z,17.48
2023-05-19T11:26:44.324Z,17.51
2023-05-19T11:29:14.530Z,17.48
2023-05-19T11:31:45.047Z,17.43
2023-05-19T11:34:13.977Z,17.38
2023-05-19T11:36:44.163Z,17.45
2023-05-19T11:39:13.630Z,17.56
2023-05-19T11:41:41.883Z,17.59
2023-05-19T11:44:13.316Z,17.64
2023-05-19T11:46:41.282Z,17.60
2023-05-19T11:49:10.657Z,17.56
2023-05-19T11:51:39.705Z,17.54
2023-05-19T11:54:08.411Z,17.53
2023-05-19T11:56:41.008Z,17.60
2023-05-19T11:59:09.596Z,17.68
2023-05-19T12:01:39.418Z,17.76
2023-05-19T12:04:10.581Z,17.80
2023-05-19T12:06:38.998Z,17.89
2023-05-19T12:09:07.470Z,17.81
2023-05-19T12:11:36.093Z,17.78
2023-05-19T12:14:04.339Z,17.83
2023-05-19T12:16:35.867Z,17.90
2023-05-19T12:19:07.468Z,17.92
2023-05-19T12:21:35.850Z,17.90
2023-05-19T12:24:06.235Z,17.91
2023-05-19T12:26:34.977Z,17.94
2023-05-19T12:29:03.449Z,18.00
2023-05-19T12:31:31.740Z,18.04
2023-05-19T12:34:01.744Z,18.11
2023-05-19T12:36:33.637Z,18.17
2023-05-19T12:39:01.928Z,18.23
2023-05-19T12:41:30.795Z,18.27
2023-05-19T12:43:59.012Z,18.32
2023-05-19T12:46:27.252Z,18.37
2023-05-19T12:49:00.880Z,18.34
2023-05-19T12:51:30.503Z,18.33
2023-05-19T12:53:59.068Z,18.30
2023-05-19T12:56:28.552Z,18.32
2023-05-19T12:58:56.751Z,18.37
2023-05-19T13:01:25.493Z,18.43
2023-05-19T13:03:54.074Z,18.56
2023-05-19T13:06:22.619Z,18.57
2023-05-19T13:08:57.149Z,18.53
2023-05-19T13:11:25.349Z,18.55
2023-05-19T13:13:53.628Z,18.55
2023-05-19T13:16:21.962Z,18.52
2023-05-19T13:18:50.220Z,18.55
2023-05-19T13:21:18.645Z,18.56
2023-05-19T13:23:46.973Z,18.57
2023-05-19T13:26:16.697Z,18.60
2023-05-19T13:28:45.050Z,18.68
2023-05-19T13:31:14.547Z,18.79
2023-05-19T13:33:42.746Z,18.92
2023-05-19T13:36:10.997Z,18.98
2023-05-19T13:38:40.421Z,19.03
2023-05-19T13:41:10.859Z,19.10
2023-05-19T13:43:40.637Z,19.18
2023-05-19T13:46:09.065Z,19.27
2023-05-19T13:48:37.609Z,19.35
2023-05-19T13:51:06.504Z,19.35
2023-05-19T13:53:34.764Z,19.29
2023-05-19T13:56:03.619Z,19.29
2023-05-19T13:58:32.181Z,19.35
2023-05-19T14:01:02.047Z,19.46
2023-05-19T14:03:30.753Z,19.53
2023-05-19T14:05:59.064Z,19.52
2023-05-19T14:08:27.248Z,19.47
2023-05-19T14:10:57.241Z,19.47
2023-05-19T14:13:33.005Z,19.40
2023-05-19T14:16:05.388Z,19.37
2023-05-19T14:18:33.690Z,19.37
2023-05-19T14:21:01.878Z,19.40
2023-05-19T14:23:30.457Z,19.38
2023-05-19T14:25:58.791Z,19.45
2023-05-19T14:28:27.093Z,19.51
2023-05-19T14:30:55.405Z,19.56
2023-05-19T14:33:25.092Z,19.61
2023-05-19T14:35:53.749Z,19.65
2023-05-19T14:38:22.004Z,19.72
2023-05-19T14:40:50.284Z,19.77
2023-05-19T14:43:18.520Z,19.80
2023-05-19T14:45:46.957Z,19.78
2023-05-19T14:48:15.328Z,19.80
2023-05-19T14:50:45.124Z,19.81
2023-05-19T14:53:13.823Z,19.87
2023-05-19T14:55:42.183Z,19.88
2023-05-19T14:58:26.840Z,19.83
2023-05-19T15:00:58.416Z,19.80
2023-05-19T15:03:26.677Z,19.76
2023-05-19T15:05:56.293Z,19.73
2023-05-19T15:08:24.675Z,19.73
2023-05-19T15:10:52.956Z,19.71
2023-05-19T15:13:21.678Z,19.66
2023-05-19T15:15:49.901Z,19.68
2023-05-19T15:18:18.913Z,19.68
2023-05-19T15:20:47.706Z,19.63
2023-05-19T15:23:17.432Z,19.56
2023-05-19T15:25:46.364Z,19.42
2023-05-19T15:28:16.889Z,19.41
2023-05-19T15:30:45.794Z,19.32
2023-05-19T15:33:14.128Z,19.25
2023-05-19T15:35:42.447Z,19.22
2023-05-19T15:38:11.075Z,19.19
2023-05-19T15:40:42.964Z,19.12
2023-05-19T15:43:11.140Z,19.08
2023-05-19T15:45:39.417Z,18.99
2023-05-19T15:48:08.113Z,18.91
2023-05-19T15:50:37.273Z,18.92
2023-05-19T15:53:07.778Z,18.97
2023-05-19T15:55:36.061Z,19.02
2023-05-19T15:58:05.743Z,18.97
2023-05-19T16:00:34.246Z,18.96
2023-05-19T16:03:02.733Z,18.78
2023-05-19T16:05:31.123Z,18.71
2023-05-19T16:07:59.428Z,18.58
2023-05-19T16:10:27.744Z,18.48
2023-05-19T16:12:55.904Z,18.44
2023-05-19T16:15:25.675Z,18.39
2023-05-19T16:17:55.113Z,18.35
2023-05-19T16:20:27.955Z,18.29
2023-05-19T16:22:56.320Z,18.29
2023-05-19T16:25:24.927Z,18.24
2023-05-19T16:27:53.714Z,18.21
2023-05-19T16:30:22.874Z,18.28
2023-05-19T16:32:53.824Z,18.28
2023-05-19T16:35:22.316Z,18.26
2023-05-19T16:37:50.601Z,18.25
2023-05-19T16:40:19.013Z,18.20
2023-05-19T16:42:47.221Z,18.18
2023-05-19T16:45:17.437Z,18.13
2023-05-19T16:47:45.742Z,18.12
2023-05-19T16:50:15.349Z,18.09
2023-05-19T16:52:43.621Z,18.05
2023-05-19T16:55:16.777Z,18.06
2023-05-19T16:57:44.856Z,17.98
2023-05-19T17:00:14.309Z,17.95
2023-05-19T17:02:45.512Z,17.96
2023-05-19T17:05:15.234Z,17.91
2023-05-19T17:07:43.499Z,17.83
2023-05-19T17:10:12.316Z,17.82
2023-05-19T17:12:40.652Z,17.91
2023-05-19T17:15:09.660Z,17.88
2023-05-19T17:17:37.911Z,17.89
2023-05-19T17:20:07.227Z,17.84
2023-05-19T17:22:37.189Z,17.83
2023-05-19T17:25:06.002Z,17.80
2023-05-19T17:27:34.150Z,17.72
2023-05-19T17:30:02.396Z,17.69
2023-05-19T17:32:35.930Z,17.71
2023-05-19T17:35:06.705Z,17.57
2023-05-19T17:37:36.507Z,17.57
2023-05-19T17:40:05.058Z,17.50
2023-05-19T17:42:33.348Z,17.48
2023-05-19T17:45:01.762Z,17.42
2023-05-19T17:47:30.115Z,17.40
2023-05-19T17:49:58.309Z,17.33
2023-05-19T17:52:27.033Z,17.35
2023-05-19T17:54:57.226Z,17.34
2023-05-19T17:57:27.160Z,17.44
2023-05-19T17:59:55.991Z,17.43
2023-05-19T18:02:24.685Z,17.44
2023-05-19T18:04:53.526Z,17.40
2023-05-19T18:07:25.705Z,17.32
2023-05-19T18:09:56.518Z,17.27
2023-05-19T18:12:26.340Z,17.19
2023-05-19T18:14:54.602Z,17.19
2023-05-19T18:17:22.841Z,17.15
2023-05-19T18:19:51.078Z,17.13
2023-05-19T18:22:19.382Z,17.08
2023-05-19T18:24:47.646Z,17.06
2023-05-19T18:27:15.851Z,17.08
2023-05-19T18:29:45.544Z,17.08
2023-05-19T18:32:14.757Z,17.10
2023-05-19T18:34:43.076Z,17.11
2023-05-19T18:37:11.224Z,17.10
2023-05-19T18:39:39.472Z,17.14
2023-05-19T18:42:07.854Z,17.18
2023-05-19T18:44:36.048Z,17.19
2023-05-19T18:47:06.160Z,17.21
2023-05-19T18:49:34.385Z,17.24
2023-05-19T18:52:02.610Z,17.26
2023-05-19T18:54:32.621Z,17.29
2023-05-19T18:57:02.820Z,17.26
2023-05-19T18:59:31.143Z,17.28
2023-05-19T19:01:59.377Z,17.27
2023-05-19T19:04:29.079Z,17.31
2023-05-19T19:06:57.333Z,17.27
2023-05-19T19:09:25.692Z,17.30
2023-05-19T19:11:53.989Z,17.30
2023-05-19T19:14:22.694Z,17.31
2023-05-19T19:16:50.943Z,17.33
2023-05-19T19:19:19.317Z,17.30
2023-05-19T19:21:49.073Z,17.32
2023-05-19T19:24:17.448Z,17.31
2023-05-19T19:26:45.666Z,17.30
2023-05-19T19:29:13.860Z,17.30
2023-05-19T19:31:42.275Z,17.30
2023-05-19T19:34:11.323Z,17.30
2023-05-19T19:36:39.561Z,17.30
2023-05-19T19:39:09.612Z,17.31
2023-05-19T19:41:37.812Z,17.28
2023-05-19T19:44:06.486Z,17.26
2023-05-19T19:46:34.975Z,17.23
2023-05-19T19:49:03.218Z,17.21
2023-05-19T19:51:31.648Z,17.17
2023-05-19T19:54:00.193Z,17.13
2023-05-19T19:56:29.956Z,17.10
2023-05-19T19:58:59.202Z,17.09
2023-05-19T20:01:28.300Z,17.05
2023-05-19T20:04:13.628Z,16.95
2023-05-19T20:06:42.043Z,16.87
2023-05-19T20:09:10.555Z,16.83
2023-05-19T20:11:40.228Z,16.81
2023-05-19T20:14:08.451Z,16.76
2023-05-19T20:16:36.788Z,16.73
2023-05-19T20:19:06.679Z,16.66
2023-05-19T20:21:36.109Z,16.63
2023-05-19T20:24:04.777Z,16.60
2023-05-19T20:26:32.973Z,16.57
2023-05-19T20:29:02.703Z,16.53
2023-05-19T20:31:30.985Z,16.50
2023-05-19T20:34:00.785Z,16.49
2023-05-19T20:36:30.098Z,16.45
2023-05-19T20:38:58.434Z,16.42
2023-05-19T20:41:26.805Z,16.41
2023-05-19T20:43:55.210Z,16.37
2023-05-19T20:46:25.121Z,16.38
2023-05-19T20:48:53.494Z,16.36
2023-05-19T20:51:25.350Z,16.38
2023-05-19T20:53:53.759Z,16.37
2023-05-19T20:56:22.440Z,16.35
2023-05-19T20:58:50.727Z,16.34
2023-05-19T21:01:19.127Z,16.36
2023-05-19T21:03:48.728Z,16.37
2023-05-19T21:06:17.112Z,16.39
2023-05-19T21:08:45.309Z,16.41
2023-05-19T21:11:13.499Z,16.41
2023-05-19T21:13:41.845Z,16.41
2023-05-19T21:16:10.063Z,16.39
2023-05-19T21:18:38.293Z,16.39
2023-05-19T21:21:08.026Z,16.36
2023-05-19T21:23:36.249Z,16.27
2023-05-19T21:26:04.924Z,16.29
2023-05-19T21:28:33.378Z,16.25
2023-05-19T21:31:01.663Z,16.25
2023-05-19T21:33:30.133Z,16.25
2023-05-19T21:36:00.495Z,16.24
2023-05-19T21:38:30.094Z,16.19
2023-05-19T21:40:58.492Z,16.19
2023-05-19T21:43:26.845Z,16.16
2023-05-19T21:45:55.491Z,16.14
2023-05-19T21:48:23.703Z,16.14
2023-05-19T21:50:54.716Z,16.15
2023-05-19T21:53:23.130Z,16.16
2023-05-19T21:55:52.626Z,16.12
2023-05-19T21:58:20.991Z,16.06
2023-05-19T22:00:53.193Z,16.06
2023-05-19T22:03:21.945Z,16.02
2023-05-19T22:05:50.679Z,16.00
2023-05-19T22:08:19.825Z,15.96
2023-05-19T22:10:51.041Z,15.92
2023-05-19T22:13:20.915Z,15.96
2023-05-19T22:15:49.289Z,15.94
2023-05-19T22:18:17.974Z,15.97
2023-05-19T22:20:46.223Z,15.95
2023-05-19T22:23:14.654Z,15.95
2023-05-19T22:25:42.965Z,15.93
2023-05-19T22:28:11.334Z,15.92
2023-05-19T22:30:42.305Z,15.96
2023-05-19T22:33:11.374Z,15.97
2023-05-19T22:35:39.781Z,15.97
2023-05-19T22:38:10.313Z,15.96
2023-05-19T22:40:39.097Z,15.92
2023-05-19T22:43:07.339Z,15.93
2023-05-19T22:45:36.116Z,15.96
2023-05-19T22:48:06.828Z,15.98
2023-05-19T22:50:35.068Z,15.98
2023-05-19T22:53:03.414Z,15.96
2023-05-19T22:55:32.394Z,15.96
2023-05-19T22:58:00.946Z,15.96
2023-05-19T23:00:29.170Z,15.94
2023-05-19T23:02:58.491Z,15.95
2023-05-19T23:05:28.233Z,15.94
2023-05-19T23:07:56.487Z,15.93
2023-05-19T23:10:24.739Z,15.95
2023-05-19T23:12:53.656Z,15.92
2023-05-19T23:15:21.959Z,15.91
2023-05-19T23:17:50.454Z,15.93
2023-05-19T23:20:18.807Z,15.92
2023-05-19T23:22:48.497Z,15.89
2023-05-19T23:25:16.811Z,15.89
2023-05-19T23:27:46.642Z,15.89
2023-05-19T23:30:15.307Z,15.85
2023-05-19T23:32:43.652Z,15.82
2023-05-19T23:35:13.283Z,15.83
2023-05-19T23:37:41.576Z,15.80
2023-05-19T23:40:12.162Z,15.83
2023-05-19T23:42:40.530Z,15.81
2023-05-19T23:45:09.844Z,15.80
2023-05-19T23:47:38.300Z,15.78
2023-05-19T23:50:06.892Z,15.78
2023-05-19T23:52:35.225Z,15.81
2023-05-19T23:55:03.805Z,15.79
2023-05-19T23:57:33.481Z,15.75
